Time;durP1;ratioP1;P1;durP2;ratioP2;P2;SDS_P1;SDS_P2;PMS_P1;PMS_P2;Temp;Humidity;BMP_temperature;BMP_pressure;BME280_temperature;BME280_humidity;BME280_pressure;Samples;Min_cycle;Max_cycle;Signal;HPM_P1;HPM_P2
2021/04/04 00:00:22;;;;;;;14.33;6.47;;;2.00;99.90;;;;;;5072245;28;20028;-77
2021/04/04 00:02:48;;;;;;;9.63;5.83;;;1.90;99.90;;;;;;5069064;28;20021;-78
2021/04/04 00:05:14;;;;;;;9.73;5.60;;;1.90;99.90;;;;;;5051920;28;20078;-77
2021/04/04 00:07:40;;;;;;;13.73;6.70;;;1.90;99.90;;;;;;5072213;28;20099;-73
2021/04/04 00:10:08;;;;;;;11.27;6.70;;;1.90;99.90;;;;;;5062954;28;20771;-73
2021/04/04 00:12:34;;;;;;;12.57;6.40;;;1.80;99.90;;;;;;5064262;28;20091;-73
2021/04/04 00:14:59;;;;;;;10.80;6.07;;;1.90;99.90;;;;;;5054456;28;20036;-73
2021/04/04 00:17:25;;;;;;;13.43;6.87;;;1.80;99.90;;;;;;5072247;28;20052;-73
2021/04/04 00:19:50;;;;;;;12.23;5.97;;;1.80;99.90;;;;;;5069181;28;20495;-73
2021/04/04 00:22:16;;;;;;;10.30;5.63;;;1.80;99.90;;;;;;5052472;28;20161;-73
2021/04/04 00:24:42;;;;;;;11.77;6.70;;;1.80;99.90;;;;;;5071993;28;20161;-73
2021/04/04 00:27:07;;;;;;;10.83;5.70;;;1.70;99.90;;;;;;5069558;28;20044;-73
2021/04/04 00:29:33;;;;;;;11.10;5.60;;;1.70;99.90;;;;;;5071493;28;20020;-73
2021/04/04 00:31:59;;;;;;;9.80;6.47;;;1.70;99.90;;;;;;5071471;28;20028;-73
2021/04/04 00:34:25;;;;;;;15.23;6.53;;;1.70;99.90;;;;;;5071913;28;20020;-73
2021/04/04 00:36:51;;;;;;;13.67;6.57;;;1.70;99.90;;;;;;5071608;28;20093;-73
2021/04/04 00:39:16;;;;;;;12.47;6.20;;;1.60;99.90;;;;;;5072051;28;20058;-73
2021/04/04 00:41:43;;;;;;;11.07;6.10;;;1.60;99.90;;;;;;5071702;28;20025;-73
2021/04/04 00:44:09;;;;;;;12.07;6.27;;;1.60;99.90;;;;;;5071579;28;20025;-73
2021/04/04 00:46:35;;;;;;;10.23;5.70;;;1.50;99.90;;;;;;5053264;28;20091;-77
2021/04/04 00:49:00;;;;;;;9.83;6.37;;;1.50;99.90;;;;;;5070436;28;20020;-77
2021/04/04 00:51:26;;;;;;;11.10;6.07;;;1.40;99.90;;;;;;5067042;28;20107;-76
2021/04/04 00:53:52;;;;;;;12.13;6.63;;;1.40;99.90;;;;;;5070178;28;20362;-75
2021/04/04 00:56:18;;;;;;;12.87;6.33;;;1.40;99.90;;;;;;5067467;28;20788;-76
2021/04/04 00:58:44;;;;;;;10.83;5.93;;;1.30;99.90;;;;;;5060781;28;20114;-76
2021/04/04 01:01:10;;;;;;;11.33;6.43;;;1.30;99.90;;;;;;5067488;28;20071;-79
2021/04/04 01:03:37;;;;;;;11.70;6.27;;;1.30;99.90;;;;;;5072278;28;20086;-78
2021/04/04 01:06:06;;;;;;;13.47;6.00;;;1.20;99.90;;;;;;5072533;28;20086;-78
2021/04/04 01:08:36;;;;;;;12.37;6.47;;;1.20;99.90;;;;;;5071847;28;20016;-75
2021/04/04 01:11:03;;;;;;;15.43;6.83;;;1.10;99.90;;;;;;5045721;28;20399;-75
2021/04/04 01:13:34;;;;;;;11.13;6.83;;;1.10;99.90;;;;;;5070588;28;20028;-71
2021/04/04 01:16:02;;;;;;;10.73;6.13;;;1.10;99.90;;;;;;5071416;28;20035;-78
2021/04/04 01:18:33;;;;;;;10.80;6.27;;;1.10;99.90;;;;;;5054336;28;20472;-78
2021/04/04 01:21:08;;;;;;;11.57;6.70;;;1.10;99.90;;;;;;5071805;28;20541;-72
2021/04/04 01:23:48;;;;;;;10.43;6.37;;;1.10;99.90;;;;;;5071036;28;20039;-71
2021/04/04 01:26:32;;;;;;;9.87;6.03;;;1.10;99.90;;;;;;5045912;28;20291;-71
2021/04/04 01:28:58;;;;;;;12.20;6.20;;;1.00;99.90;;;;;;5068109;28;20019;-71
2021/04/04 01:31:26;;;;;;;8.77;5.83;;;1.00;99.90;;;;;;5070463;28;20055;-75
2021/04/04 01:33:54;;;;;;;10.73;5.37;;;1.00;99.90;;;;;;5069219;28;20024;-75
2021/04/04 01:36:21;;;;;;;11.50;7.10;;;0.90;99.90;;;;;;5050782;28;20024;-76
2021/04/04 01:38:47;;;;;;;13.50;6.60;;;0.80;99.90;;;;;;5067675;28;20028;-72
2021/04/04 01:41:18;;;;;;;13.53;7.17;;;0.80;99.90;;;;;;5070810;28;20404;-72
2021/04/04 01:43:46;;;;;;;12.00;6.37;;;0.80;99.90;;;;;;5070326;28;20090;-76
2021/04/04 01:46:13;;;;;;;12.67;7.23;;;0.70;99.90;;;;;;5066655;28;20044;-76
2021/04/04 01:48:40;;;;;;;17.63;7.53;;;0.70;99.90;;;;;;5069110;28;20031;-76
2021/04/04 01:51:09;;;;;;;15.63;9.40;;;0.60;99.90;;;;;;5068078;28;20033;-76
2021/04/04 01:53:35;;;;;;;14.70;7.70;;;0.60;99.90;;;;;;5065146;28;20072;-79
2021/04/04 01:56:01;;;;;;;16.47;8.87;;;0.60;99.90;;;;;;5067314;28;20182;-78
2021/04/04 01:58:29;;;;;;;16.80;7.77;;;0.50;99.90;;;;;;5072541;28;20029;-78
2021/04/04 02:00:55;;;;;;;13.57;7.27;;;0.50;99.90;;;;;;5071581;28;20491;-78
2021/04/04 02:03:21;;;;;;;18.63;7.47;;;0.50;99.90;;;;;;5054109;28;20444;-76
2021/04/04 02:05:50;;;;;;;16.27;8.47;;;0.50;99.90;;;;;;5048504;28;20468;-79
2021/04/04 02:08:16;;;;;;;12.40;7.47;;;0.40;99.90;;;;;;5070487;28;20025;-78
2021/04/04 02:10:42;;;;;;;15.33;8.20;;;0.40;99.90;;;;;;5075948;28;20025;-79
2021/04/04 02:13:09;;;;;;;11.17;6.73;;;0.30;99.90;;;;;;5089023;28;20047;-79
2021/04/04 02:15:36;;;;;;;9.30;6.30;;;0.30;99.90;;;;;;5076308;28;20028;-79
2021/04/04 02:18:09;;;;;;;10.57;6.03;;;0.30;99.90;;;;;;5075517;28;20044;-79
2021/04/04 02:20:36;;;;;;;11.20;7.10;;;0.20;99.90;;;;;;5075395;28;20020;-79
2021/04/04 02:23:05;;;;;;;13.17;6.50;;;0.20;99.90;;;;;;5075426;28;20035;-79
2021/04/04 02:25:31;;;;;;;10.10;6.33;;;0.20;99.90;;;;;;5057516;28;20767;-79
2021/04/04 02:27:57;;;;;;;15.43;6.67;;;0.20;99.90;;;;;;5073824;28;20016;-76
2021/04/04 02:30:24;;;;;;;20.77;6.93;;;0.20;99.90;;;;;;5056418;28;20021;-79
2021/04/04 02:33:09;;;;;;;11.60;5.80;;;0.10;99.90;;;;;;5075240;28;20058;-79
2021/04/04 02:35:37;;;;;;;12.03;6.60;;;0.10;99.90;;;;;;5075028;28;20025;-79
2021/04/04 02:38:11;;;;;;;16.03;6.60;;;0.10;99.90;;;;;;5075057;28;20039;-79
2021/04/04 02:40:38;;;;;;;11.57;7.03;;;0.10;99.90;;;;;;5075035;28;20028;-79
2021/04/04 02:43:07;;;;;;;16.63;6.50;;;0.10;99.90;;;;;;5074952;28;20049;-77
2021/04/04 02:45:33;;;;;;;11.50;6.23;;;0.10;99.90;;;;;;5072824;28;20012;-76
2021/04/04 02:48:05;;;;;;;12.23;6.60;;;0.10;99.90;;;;;;5073808;28;20493;-72
2021/04/04 02:50:32;;;;;;;13.50;6.37;;;0.10;99.90;;;;;;5073609;28;20054;-76
2021/04/04 02:53:00;;;;;;;13.07;7.00;;;0.10;99.90;;;;;;5062091;28;20025;-76
2021/04/04 02:55:29;;;;;;;10.83;6.73;;;0.10;99.90;;;;;;5070110;28;20063;-76
2021/04/04 02:57:56;;;;;;;12.47;6.13;;;0.00;99.90;;;;;;5071666;28;20036;-76
2021/04/04 03:00:23;;;;;;;12.10;6.40;;;0.00;99.90;;;;;;5073907;28;20016;-79
2021/04/04 03:02:50;;;;;;;11.37;5.93;;;0.00;99.90;;;;;;5074790;28;20095;-79
2021/04/04 03:05:19;;;;;;;11.43;6.40;;;0.00;99.90;;;;;;5074710;28;20154;-79
2021/04/04 03:07:45;;;;;;;10.60;5.87;;;0.00;99.90;;;;;;5074803;28;20032;-78
2021/04/04 03:10:12;;;;;;;10.30;5.80;;;0.00;99.90;;;;;;5055258;28;20027;-76
2021/04/04 03:12:39;;;;;;;11.43;5.87;;;0.00;99.90;;;;;;5058868;28;20543;-76
2021/04/04 03:15:08;;;;;;;12.03;6.53;;;0.00;99.90;;;;;;5055081;28;20107;-72
2021/04/04 03:17:37;;;;;;;12.50;7.00;;;0.00;99.90;;;;;;5073492;28;20025;-72
2021/04/04 03:20:08;;;;;;;11.87;5.93;;;0.00;99.90;;;;;;5072946;28;20103;-76
2021/04/04 03:22:37;;;;;;;10.07;6.37;;;0.00;99.90;;;;;;5074248;28;20048;-78
2021/04/04 03:25:04;;;;;;;13.53;6.47;;;0.10;99.90;;;;;;5074481;28;20017;-79
2021/04/04 03:27:31;;;;;;;11.80;6.33;;;0.10;99.90;;;;;;5075039;28;20060;-79
2021/04/04 03:29:57;;;;;;;14.07;5.97;;;0.00;99.90;;;;;;5075073;28;20403;-79
2021/04/04 03:32:23;;;;;;;11.93;6.33;;;0.00;99.90;;;;;;5075510;28;20091;-79
2021/04/04 03:34:49;;;;;;;11.30;6.30;;;0.00;99.90;;;;;;5057058;28;20576;-79
2021/04/04 03:37:15;;;;;;;10.50;6.80;;;0.10;99.90;;;;;;5072825;28;20017;-79
2021/04/04 03:39:42;;;;;;;9.43;6.30;;;0.10;99.90;;;;;;5069661;28;20031;-79
2021/04/04 03:42:08;;;;;;;13.53;5.80;;;-0.10;99.90;;;;;;5065329;28;20024;-79
2021/04/04 03:44:39;;;;;;;10.67;5.87;;;-0.20;99.90;;;;;;5074006;28;20023;-79
2021/04/04 03:47:05;;;;;;;13.63;7.40;;;-0.20;99.90;;;;;;5074331;28;20078;-79
2021/04/04 03:49:33;;;;;;;10.63;6.20;;;-0.20;99.90;;;;;;5074439;28;20425;-79
2021/04/04 03:52:00;;;;;;;12.23;5.63;;;-0.20;99.90;;;;;;5060540;28;20024;-79
2021/04/04 03:54:27;;;;;;;13.77;6.43;;;-0.30;99.90;;;;;;5074430;28;20028;-79
2021/04/04 03:56:54;;;;;;;10.10;6.30;;;-0.30;99.90;;;;;;5073896;28;20037;-79
2021/04/04 03:59:22;;;;;;;10.87;5.47;;;-0.30;99.90;;;;;;5074174;28;20027;-79
2021/04/04 04:01:49;;;;;;;11.27;6.23;;;-0.30;99.90;;;;;;5074255;28;20131;-79
2021/04/04 04:04:18;;;;;;;12.00;6.47;;;-0.20;99.90;;;;;;5073606;28;20097;-79
2021/04/04 04:06:45;;;;;;;14.90;6.47;;;-0.30;99.90;;;;;;5055014;28;20033;-79
2021/04/04 04:09:16;;;;;;;9.17;5.97;;;-0.30;99.90;;;;;;5072795;28;20115;-76
2021/04/04 04:11:44;;;;;;;11.10;5.80;;;-0.30;99.90;;;;;;5071198;28;20032;-76
2021/04/04 04:14:12;;;;;;;10.57;5.93;;;-0.30;99.90;;;;;;5072320;28;20048;-76
2021/04/04 04:16:39;;;;;;;10.27;5.93;;;-0.30;99.90;;;;;;5072563;28;20016;-76
2021/04/04 04:19:09;;;;;;;12.13;5.70;;;-0.20;99.90;;;;;;5072077;28;20017;-77
2021/04/04 04:21:37;;;;;;;10.90;6.10;;;-0.20;99.90;;;;;;5070435;28;20028;-76
2021/04/04 04:24:11;;;;;;;11.13;6.80;;;-0.20;99.90;;;;;;5069311;28;20515;-77
2021/04/04 04:26:42;;;;;;;13.63;6.37;;;-0.30;99.90;;;;;;5070529;28;20020;-76
2021/04/04 04:29:10;;;;;;;9.67;5.90;;;-0.30;99.90;;;;;;5071368;28;20040;-77
2021/04/04 04:31:40;;;;;;;10.57;6.47;;;-0.30;99.90;;;;;;5070587;28;20404;-77
2021/04/04 04:34:07;;;;;;;13.57;6.43;;;-0.30;99.90;;;;;;5068656;28;20025;-77
2021/04/04 04:36:35;;;;;;;12.30;6.57;;;-0.30;99.90;;;;;;5072819;28;20025;-72
2021/04/04 04:39:04;;;;;;;9.57;6.33;;;-0.30;99.90;;;;;;5072359;28;20031;-73
2021/04/04 04:41:33;;;;;;;10.40;6.20;;;-0.30;99.90;;;;;;5072481;28;20081;-72
2021/04/04 04:44:01;;;;;;;10.43;6.23;;;-0.30;99.90;;;;;;5072951;28;20122;-73
2021/04/04 04:46:27;;;;;;;16.83;7.10;;;-0.30;99.90;;;;;;5071802;28;20025;-73
2021/04/04 04:48:53;;;;;;;11.80;6.67;;;-0.30;99.90;;;;;;5072159;28;20159;-73
2021/04/04 04:51:20;;;;;;;9.17;5.90;;;-0.40;99.90;;;;;;5071466;28;20131;-77
2021/04/04 04:53:48;;;;;;;12.00;6.20;;;-0.30;99.90;;;;;;5051742;28;20024;-77
2021/04/04 04:56:14;;;;;;;11.07;6.00;;;-0.50;99.90;;;;;;5049634;28;20056;-77
2021/04/04 04:58:40;;;;;;;10.50;6.37;;;-0.60;99.90;;;;;;5039104;28;20376;-77
2021/04/04 05:01:10;;;;;;;12.97;7.17;;;-0.60;99.90;;;;;;5050816;28;20036;-77
2021/04/04 05:03:35;;;;;;;12.20;6.73;;;-0.60;99.90;;;;;;5046729;28;20125;-77
2021/04/04 05:06:10;;;;;;;13.13;6.80;;;-0.60;99.90;;;;;;5049545;28;20107;-77
2021/04/04 05:08:39;;;;;;;15.48;7.13;;;-0.60;99.90;;;;;;5051880;28;20025;-72
2021/04/04 05:11:07;;;;;;;13.67;6.33;;;-0.60;99.90;;;;;;5055983;28;20053;-72
2021/04/04 05:13:37;;;;;;;17.97;6.50;;;-0.60;99.90;;;;;;5042971;28;20041;-72
2021/04/04 05:16:07;;;;;;;10.73;6.30;;;-0.70;99.90;;;;;;5050535;28;20174;-72
2021/04/04 05:18:32;;;;;;;11.77;6.50;;;-0.60;99.90;;;;;;5045171;28;20584;-72
2021/04/04 05:20:58;;;;;;;11.10;6.83;;;-0.60;99.90;;;;;;5047869;28;20032;-70
2021/04/04 05:23:24;;;;;;;11.87;6.50;;;-0.50;99.90;;;;;;5051569;28;20029;-70
2021/04/04 05:25:51;;;;;;;11.40;6.60;;;-0.50;99.90;;;;;;5051280;28;20020;-71
2021/04/04 05:28:17;;;;;;;12.23;5.80;;;-0.40;99.90;;;;;;5051596;28;20083;-70
2021/04/04 05:30:43;;;;;;;13.30;6.50;;;-0.30;99.90;;;;;;5051475;28;20036;-70
2021/04/04 05:33:09;;;;;;;11.17;6.80;;;-0.20;99.90;;;;;;5051538;28;20119;-71
2021/04/04 05:35:39;;;;;;;11.73;6.30;;;-0.10;99.90;;;;;;5049576;28;20029;-70
2021/04/04 05:38:09;;;;;;;12.23;6.00;;;0.00;99.90;;;;;;5049628;28;20071;-71
2021/04/04 05:40:36;;;;;;;9.57;6.20;;;0.10;99.90;;;;;;5051357;28;20470;-70
2021/04/04 05:43:09;;;;;;;16.97;8.47;;;0.20;99.90;;;;;;5048776;28;20147;-76
2021/04/04 05:45:43;;;;;;;12.37;7.00;;;0.30;99.90;;;;;;5049904;28;20092;-77
2021/04/04 05:48:38;;;;;;;14.80;6.17;;;0.40;99.90;;;;;;5048426;28;20112;-76
2021/04/04 05:51:13;;;;;;;12.93;6.03;;;0.50;99.90;;;;;;5046791;28;20014;-77
2021/04/04 05:53:57;;;;;;;11.93;6.65;;;0.70;99.90;;;;;;5048126;28;20466;-76
2021/04/04 05:56:26;;;;;;;13.47;6.07;;;0.90;99.90;;;;;;5048069;28;20410;-77
2021/04/04 05:59:13;;;;;;;11.40;6.60;;;0.90;99.90;;;;;;5050114;28;20104;-77
2021/04/04 06:02:03;;;;;;;12.70;6.50;;;1.10;99.90;;;;;;5052458;28;20061;-77
2021/04/04 06:04:50;;;;;;;12.93;7.03;;;1.50;99.90;;;;;;5039662;28;20053;-68
2021/04/04 06:07:53;;;;;;;10.93;6.30;;;1.60;99.90;;;;;;5048478;28;20076;-76
2021/04/04 06:10:50;;;;;;;11.27;6.00;;;1.80;99.90;;;;;;5049655;28;20428;-75
2021/04/04 06:13:32;;;;;;;13.33;5.93;;;1.90;99.90;;;;;;5048491;28;20024;-74
2021/04/04 06:16:10;;;;;;;12.20;7.23;;;1.80;99.90;;;;;;5046168;28;20028;-64
2021/04/04 06:18:53;;;;;;;13.43;7.17;;;1.80;99.90;;;;;;5043925;28;20032;-74
2021/04/04 06:21:44;;;;;;;10.50;6.77;;;1.90;99.90;;;;;;5050077;28;20492;-70
2021/04/04 06:24:33;;;;;;;13.73;7.20;;;1.90;99.90;;;;;;5047655;28;20021;-71
2021/04/04 06:27:38;;;;;;;15.50;7.33;;;2.00;99.90;;;;;;5045600;28;20033;-71
2021/04/04 06:30:21;;;;;;;12.55;7.18;;;1.90;99.90;;;;;;5049775;28;20053;-71
2021/04/04 06:33:08;;;;;;;11.73;7.50;;;1.90;99.90;;;;;;5049554;28;20072;-71
2021/04/04 06:35:40;;;;;;;14.63;8.00;;;1.90;99.90;;;;;;5049402;28;20092;-71
2021/04/04 06:38:24;;;;;;;13.97;7.20;;;2.00;99.90;;;;;;5051241;28;20019;-71
2021/04/04 06:40:59;;;;;;;12.33;7.67;;;2.10;99.90;;;;;;5051471;28;20021;-72
2021/04/04 06:43:46;;;;;;;16.02;7.55;;;2.10;99.90;;;;;;5043404;28;20029;-74
2021/04/04 06:46:21;;;;;;;12.23;7.40;;;2.20;99.90;;;;;;5044039;28;20045;-74
2021/04/04 06:48:58;;;;;;;13.82;7.57;;;2.30;99.90;;;;;;5047341;28;20036;-74
2021/04/04 06:51:42;;;;;;;11.57;7.30;;;2.40;99.90;;;;;;5050741;28;20029;-76
2021/04/04 06:54:29;;;;;;;13.43;7.27;;;2.40;99.90;;;;;;5045570;28;20511;-74
2021/04/04 06:57:07;;;;;;;14.00;8.10;;;2.60;99.90;;;;;;5065835;28;20044;-74
2021/04/04 06:59:35;;;;;;;15.97;7.63;;;2.60;99.90;;;;;;5072597;28;20023;-76
2021/04/04 07:02:08;;;;;;;15.83;7.50;;;2.70;99.90;;;;;;5074944;28;20090;-76
2021/04/04 07:04:40;;;;;;;15.70;7.03;;;2.90;99.90;;;;;;5074941;28;20023;-78
2021/04/04 07:07:27;;;;;;;11.40;7.17;;;3.00;99.90;;;;;;5055525;28;20473;-67
2021/04/04 07:10:24;;;;;;;11.60;6.73;;;3.10;99.90;;;;;;5068608;28;20028;-67
2021/04/04 07:13:27;;;;;;;13.17;7.53;;;3.30;99.90;;;;;;5062795;28;20103;-76
2021/04/04 07:16:06;;;;;;;10.87;6.10;;;3.40;99.90;;;;;;5075331;28;20411;-76
2021/04/04 07:18:47;;;;;;;10.40;6.30;;;3.50;99.90;;;;;;5074754;28;20096;-76
2021/04/04 07:21:50;;;;;;;10.10;6.07;;;3.60;99.90;;;;;;5075075;28;20021;-76
2021/04/04 07:24:45;;;;;;;14.97;6.63;;;3.80;99.90;;;;;;5074318;28;20093;-76
2021/04/04 07:27:46;;;;;;;10.10;6.23;;;4.00;99.90;;;;;;5072122;28;20032;-76
2021/04/04 07:30:33;;;;;;;10.30;4.83;;;4.10;99.90;;;;;;5038015;28;20040;-71
2021/04/04 07:33:14;;;;;;;12.73;6.30;;;4.30;99.90;;;;;;5075556;28;20104;-76
2021/04/04 07:36:21;;;;;;;12.00;6.57;;;4.40;99.90;;;;;;5074891;28;20099;-77
2021/04/04 07:39:17;;;;;;;13.47;6.27;;;4.50;99.90;;;;;;5063025;28;20025;-76
2021/04/04 07:42:01;;;;;;;9.00;5.90;;;4.60;99.90;;;;;;5057095;28;20103;-76
2021/04/04 07:44:55;;;;;;;13.83;6.23;;;4.70;99.90;;;;;;5073528;28;20025;-76
2021/04/04 07:47:41;;;;;;;10.47;6.07;;;4.90;99.90;;;;;;5050217;28;20028;-76
2021/04/04 07:50:10;;;;;;;11.07;6.03;;;5.00;99.90;;;;;;5075218;28;20052;-76
2021/04/04 07:53:00;;;;;;;14.67;6.13;;;5.00;99.90;;;;;;5075083;28;20024;-76
2021/04/04 07:55:43;;;;;;;12.03;5.60;;;5.10;99.90;;;;;;5074360;28;20036;-77
2021/04/04 07:58:46;;;;;;;9.53;6.00;;;5.20;99.90;;;;;;5072650;28;20464;-65
2021/04/04 08:01:19;;;;;;;11.67;5.27;;;5.20;99.90;;;;;;5067745;28;20024;-66
2021/04/04 08:04:04;;;;;;;11.10;5.37;;;5.30;99.90;;;;;;5054986;28;20039;-66
2021/04/04 08:06:38;;;;;;;14.40;6.07;;;5.30;99.90;;;;;;5072350;28;20025;-65
2021/04/04 08:09:12;;;;;;;10.13;4.90;;;5.40;99.90;;;;;;5073542;28;20033;-66
2021/04/04 08:11:50;;;;;;;11.25;5.82;;;5.50;99.90;;;;;;5074492;28;20040;-65
2021/04/04 08:14:26;;;;;;;10.47;5.03;;;5.70;99.90;;;;;;5073898;28;20021;-70
2021/04/04 08:16:57;;;;;;;14.50;8.63;;;5.90;99.90;;;;;;5070368;28;20051;-71
2021/04/04 08:19:23;;;;;;;51.57;26.67;;;6.10;99.90;;;;;;5069254;28;20056;-72
2021/04/04 08:22:16;;;;;;;11.97;6.93;;;6.30;99.90;;;;;;5070249;28;20155;-72
2021/04/04 08:24:49;;;;;;;13.70;6.30;;;6.50;99.90;;;;;;5069295;28;20114;-74
2021/04/04 08:27:23;;;;;;;14.13;6.30;;;6.80;99.90;;;;;;5069642;28;20508;-75
2021/04/04 08:29:57;;;;;;;14.20;5.60;;;6.90;99.90;;;;;;5060266;28;20044;-74
2021/04/04 08:32:47;;;;;;;12.73;5.53;;;7.10;99.90;;;;;;5070343;28;20039;-74
2021/04/04 08:35:26;;;;;;;12.17;5.53;;;7.10;99.90;;;;;;5066567;28;20064;-70
2021/04/04 08:38:00;;;;;;;9.83;5.67;;;7.10;99.90;;;;;;5071240;28;20091;-66
2021/04/04 08:40:26;;;;;;;10.27;5.20;;;7.10;99.90;;;;;;5072676;28;20037;-66
2021/04/04 08:42:51;;;;;;;14.00;5.13;;;7.10;99.90;;;;;;5073837;28;20369;-66
2021/04/04 08:45:45;;;;;;;8.80;5.20;;;7.00;99.90;;;;;;5073118;28;20036;-65
2021/04/04 08:48:14;;;;;;;8.77;4.37;;;7.00;99.90;;;;;;5055481;28;20054;-66
2021/04/04 08:50:43;;;;;;;7.80;3.87;;;7.10;99.90;;;;;;5059277;28;20126;-66
2021/04/04 08:53:17;;;;;;;9.77;3.73;;;7.30;99.90;;;;;;5073485;28;20032;-67
2021/04/04 08:55:46;;;;;;;13.90;3.90;;;7.40;97.30;;;;;;5072007;28;20085;-67
2021/04/04 08:58:15;;;;;;;6.60;3.30;;;7.40;95.50;;;;;;5072554;28;20023;-67
2021/04/04 09:00:41;;;;;;;7.73;2.90;;;7.50;95.30;;;;;;5054635;28;20421;-67
2021/04/04 09:03:22;;;;;;;11.07;3.27;;;7.50;92.00;;;;;;5072670;28;20031;-66
2021/04/04 09:05:48;;;;;;;4.43;2.30;;;7.70;92.20;;;;;;5071639;28;20473;-65
2021/04/04 09:08:15;;;;;;;4.60;2.33;;;8.00;86.00;;;;;;5071283;28;20023;-65
2021/04/04 09:10:44;;;;;;;10.47;4.03;;;8.20;85.50;;;;;;5071046;28;20333;-65
2021/04/04 09:13:14;;;;;;;7.70;3.00;;;8.20;83.50;;;;;;5071794;28;20481;-77
2021/04/04 09:15:57;;;;;;;7.77;3.10;;;8.40;84.00;;;;;;5058006;28;20031;-81
2021/04/04 09:18:25;;;;;;;9.60;3.40;;;8.40;85.40;;;;;;5063265;28;20060;-81
2021/04/04 09:21:00;;;;;;;6.17;2.87;;;8.70;84.80;;;;;;5068779;28;20047;-81
2021/04/04 09:23:26;;;;;;;;;;;8.80;82.50;;;;;;5051125;28;20035;-81
2021/04/04 09:25:55;;;;;;;4.57;2.87;;;9.00;79.60;;;;;;5053596;28;19916;-81
2021/04/04 09:28:25;;;;;;;5.37;2.60;;;9.10;75.10;;;;;;5048312;28;20021;-81
2021/04/04 09:30:51;;;;;;;8.03;2.50;;;9.40;73.40;;;;;;5068032;28;20036;-81
2021/04/04 09:33:29;;;;;;;6.70;2.87;;;9.60;71.90;;;;;;5068095;28;20693;-81
2021/04/04 09:35:58;;;;;;;14.30;8.13;;;9.60;70.50;;;;;;5064710;28;20449;-81
2021/04/04 09:38:36;;;;;;;12.13;5.90;;;9.70;68.90;;;;;;5065794;28;20093;-77
2021/04/04 09:41:02;;;;;;;21.23;10.43;;;10.00;69.60;;;;;;5069081;28;20366;-77
2021/04/04 09:43:28;;;;;;;14.17;6.23;;;9.90;63.10;;;;;;5073282;28;20017;-77
2021/04/04 09:46:05;;;;;;;12.97;5.70;;;10.20;63.70;;;;;;5054617;28;20023;-77
2021/04/04 09:48:37;;;;;;;39.20;18.50;;;10.40;63.50;;;;;;5053818;28;20415;-69
2021/04/04 09:51:13;;;;;;;11.27;6.97;;;10.60;67.10;;;;;;5069242;28;20088;-79
2021/04/04 09:53:42;;;;;;;6.83;3.97;;;10.70;65.30;;;;;;5072433;28;20047;-79
2021/04/04 09:56:12;;;;;;;10.37;7.20;;;10.80;63.60;;;;;;5072549;28;20550;-83
2021/04/04 09:58:39;;;;;;;7.70;4.27;;;11.00;63.70;;;;;;5071995;28;20143;-82
2021/04/04 10:01:14;;;;;;;6.15;2.88;;;11.30;63.30;;;;;;5064851;28;20027;-82
2021/04/04 10:03:40;;;;;;;5.47;2.90;;;11.20;62.40;;;;;;5066641;28;20031;-82
2021/04/04 10:06:12;;;;;;;3.30;2.03;;;10.90;59.80;;;;;;5066749;28;20461;-81
2021/04/04 10:08:51;;;;;;;6.27;2.70;;;11.00;59.90;;;;;;5066423;28;20112;-81
2021/04/04 10:11:18;;;;;;;5.20;3.20;;;10.50;59.60;;;;;;5067419;28;20472;-82
2021/04/04 10:13:44;;;;;;;6.03;3.30;;;10.20;62.30;;;;;;5068212;28;20104;-82
2021/04/04 10:16:21;;;;;;;10.70;7.37;;;9.90;61.70;;;;;;5068007;28;20108;-82
2021/04/04 10:19:07;;;;;;;7.03;4.67;;;9.60;63.00;;;;;;5067366;28;20024;-82
2021/04/04 10:21:41;;;;;;;5.83;3.70;;;9.40;64.30;;;;;;5049035;28;20021;-81
2021/04/04 10:24:28;;;;;;;7.87;4.60;;;9.20;65.20;;;;;;5067789;28;20020;-81
2021/04/04 10:27:17;;;;;;;5.00;3.30;;;9.30;65.30;;;;;;5053290;28;20035;-79
2021/04/04 10:29:43;;;;;;;9.03;3.73;;;9.50;65.10;;;;;;5071127;28;20528;-79
2021/04/04 10:32:08;;;;;;;4.30;2.60;;;9.60;63.80;;;;;;5072656;28;20036;-80
2021/04/04 10:34:45;;;;;;;4.70;2.30;;;9.50;62.70;;;;;;5049588;28;20075;-81
2021/04/04 10:37:11;;;;;;;6.33;3.10;;;9.60;63.40;;;;;;5070598;28;20065;-80
2021/04/04 10:39:38;;;;;;;3.60;2.30;;;9.90;67.10;;;;;;5056281;28;20485;-80
2021/04/04 10:42:16;;;;;;;5.97;2.70;;;10.20;64.10;;;;;;5056176;28;20021;-81
2021/04/04 10:44:42;;;;;;;3.80;2.40;;;10.60;61.90;;;;;;5055586;28;20025;-81
2021/04/04 10:47:19;;;;;;;5.22;2.30;;;11.00;62.10;;;;;;5055631;28;20044;-81
2021/04/04 10:49:47;;;;;;;7.22;2.85;;;11.30;59.70;;;;;;5068555;28;20020;-81
2021/04/04 10:52:13;;;;;;;6.40;2.70;;;11.30;59.40;;;;;;5075387;28;20064;-81
2021/04/04 10:54:40;;;;;;;6.13;2.85;;;11.60;59.00;;;;;;5075685;28;20498;-81
2021/04/04 10:57:08;;;;;;;8.32;2.50;;;11.90;61.30;;;;;;5075144;28;20047;-80
2021/04/04 10:59:34;;;;;;;3.30;2.10;;;12.30;57.40;;;;;;5074976;28;20028;-83
2021/04/04 11:02:00;;;;;;;6.70;2.42;;;12.10;58.00;;;;;;5068842;28;20399;-82
2021/04/04 11:04:29;;;;;;;4.28;2.53;;;12.10;57.00;;;;;;5073811;28;20032;-73
2021/04/04 11:07:00;;;;;;;5.28;2.80;;;12.30;57.60;;;;;;5074313;28;20083;-83
2021/04/04 11:09:28;;;;;;;4.70;2.33;;;12.50;57.40;;;;;;5043006;28;20017;-82
2021/04/04 11:12:00;;;;;;;6.43;2.60;;;12.50;55.90;;;;;;5074483;28;20399;-83
2021/04/04 11:14:29;;;;;;;5.65;2.53;;;12.60;57.40;;;;;;5074346;28;20028;-84
2021/04/04 11:16:59;;;;;;;6.43;2.83;;;12.60;56.20;;;;;;5074383;28;20078;-85
2021/04/04 11:19:26;;;;;;;6.60;2.28;;;12.70;58.00;;;;;;5074200;28;20036;-84
2021/04/04 11:21:54;;;;;;;8.10;2.35;;;12.60;54.90;;;;;;5056380;28;20765;-84
2021/04/04 11:24:23;;;;;;;4.57;2.80;;;12.50;56.70;;;;;;5073676;28;20020;-85
2021/04/04 11:26:56;;;;;;;6.70;2.45;;;12.50;54.70;;;;;;5073932;28;20116;-85
2021/04/04 11:29:23;;;;;;;4.88;2.67;;;12.60;55.30;;;;;;5073303;28;20016;-85
2021/04/04 11:31:51;;;;;;;8.80;2.55;;;12.50;54.00;;;;;;5055290;28;20469;-84
2021/04/04 11:34:39;;;;;;;7.32;2.45;;;12.60;54.90;;;;;;5073891;28;20029;-85
2021/04/04 11:37:06;;;;;;;5.63;2.17;;;12.80;54.30;;;;;;5073242;28;20035;-86
2021/04/04 11:39:33;;;;;;;4.65;2.80;;;13.20;55.80;;;;;;5056463;28;20510;-85
2021/04/04 11:42:04;;;;;;;6.50;2.63;;;13.10;52.40;;;;;;5077128;28;20028;-86
2021/04/04 11:44:31;;;;;;;4.75;2.17;;;13.10;56.40;;;;;;5076725;28;20029;-85
2021/04/04 11:47:01;;;;;;;4.15;2.33;;;13.20;53.80;;;;;;5077020;28;20024;-85
2021/04/04 11:49:30;;;;;;;5.65;2.33;;;13.00;52.30;;;;;;5075208;28;20033;-85
2021/04/04 11:52:00;;;;;;;4.50;2.38;;;12.40;52.80;;;;;;5070731;28;20029;-83
2021/04/04 11:54:50;;;;;;;5.88;3.22;;;12.10;54.00;;;;;;5053983;28;20026;-75
2021/04/04 11:57:26;;;;;;;5.55;2.72;;;11.90;55.20;;;;;;5085522;22;20053;-72
2021/04/04 11:59:56;;;;;;;14.13;8.30;;;12.20;56.40;;;;;;5068745;28;20313;-71
2021/04/04 12:02:26;;;;;;;6.85;3.30;;;12.40;57.50;;;;;;5069395;28;20040;-71
2021/04/04 12:05:08;;;;;;;7.38;3.60;;;12.20;55.10;;;;;;5071298;28;20103;-71
2021/04/04 12:07:43;;;;;;;7.25;3.28;;;12.30;56.20;;;;;;5071147;28;20030;-71
2021/04/04 12:10:10;;;;;;;7.03;2.72;;;12.50;54.40;;;;;;5069726;28;20020;-72
2021/04/04 12:12:37;;;;;;;4.72;2.35;;;13.00;56.30;;;;;;5054989;28;20036;-70
2021/04/04 12:15:03;;;;;;;5.13;2.45;;;13.20;53.00;;;;;;5073938;28;20025;-70
2021/04/04 12:17:30;;;;;;;5.35;2.90;;;13.30;53.00;;;;;;5073439;28;20024;-69
2021/04/04 12:19:58;;;;;;;5.30;2.53;;;13.40;52.00;;;;;;5073155;28;20036;-70
2021/04/04 12:22:43;;;;;;;5.20;2.30;;;13.20;52.60;;;;;;5072516;28;20039;-69
2021/04/04 12:25:14;;;;;;;11.18;9.25;;;13.20;51.80;;;;;;5072935;28;20099;-69
2021/04/04 12:27:43;;;;;;;6.57;2.80;;;13.10;56.10;;;;;;5072907;28;20147;-68
2021/04/04 12:30:20;;;;;;;7.82;3.38;;;13.30;53.00;;;;;;5072566;28;20103;-69
2021/04/04 12:32:45;;;;;;;8.25;2.65;;;13.50;52.40;;;;;;5069042;28;20465;-68
2021/04/04 12:35:11;;;;;;;3.53;2.30;;;13.50;53.80;;;;;;5072615;28;20043;-68
2021/04/04 12:37:39;;;;;;;9.73;2.53;;;13.80;51.00;;;;;;5072038;28;20096;-69
2021/04/04 12:40:08;;;;;;;5.03;2.53;;;14.20;50.20;;;;;;5072124;28;20024;-69
2021/04/04 12:42:36;;;;;;;9.32;3.72;;;14.10;50.70;;;;;;5064096;28;20024;-70
2021/04/04 12:45:08;;;;;;;7.63;3.03;;;13.80;50.20;;;;;;5068019;28;20462;-68
2021/04/04 12:47:35;;;;;;;5.28;2.28;;;14.30;52.00;;;;;;5070717;28;20032;-68
2021/04/04 12:50:16;;;;;;;8.55;2.58;;;14.40;51.00;;;;;;5072221;28;20104;-68
2021/04/04 12:52:47;;;;;;;4.93;2.45;;;14.40;49.50;;;;;;5060466;28;20017;-70
2021/04/04 12:55:25;;;;;;;3.38;2.30;;;14.60;48.90;;;;;;5070366;28;20025;-70
2021/04/04 12:58:09;;;;;;;4.72;2.40;;;14.30;50.30;;;;;;5059878;28;20146;-70
2021/04/04 13:00:40;;;;;;;3.92;2.50;;;14.30;51.60;;;;;;5069298;28;20040;-71
2021/04/04 13:03:17;;;;;;;5.45;2.40;;;14.30;51.70;;;;;;5070557;28;20040;-70
2021/04/04 13:05:45;;;;;;;4.82;2.30;;;14.50;50.20;;;;;;5070080;28;20123;-70
2021/04/04 13:08:16;;;;;;;7.07;2.65;;;14.70;47.80;;;;;;5063916;28;20033;-70
2021/04/04 13:10:47;;;;;;;4.72;2.25;;;14.80;49.40;;;;;;5067225;28;20012;-70